sensor_id;sensor_type;location;lat;lon;timestamp;P1;durP1;ratioP1;P2;durP2;ratioP2
9334;SDS011;4706;41.844;26.082;2022-12-07T00:01:04;36.60;;;20.38;;
9334;SDS011;4706;41.844;26.082;2022-12-07T00:03:40;34.22;;;17.65;;
9334;SDS011;4706;41.844;26.082;2022-12-07T00:06:07;33.00;;;16.93;;
9334;SDS011;4706;41.844;26.082;2022-12-07T00:08:35;26.35;;;16.65;;
9334;SDS011;4706;41.844;26.082;2022-12-07T00:11:02;21.58;;;14.10;;
9334;SDS011;4706;41.844;26.082;2022-12-07T00:13:35;16.88;;;11.10;;
9334;SDS011;4706;41.844;26.082;2022-12-07T00:16:06;20.17;;;12.48;;
9334;SDS011;4706;41.844;26.082;2022-12-07T00:18:33;17.05;;;11.02;;
9334;SDS011;4706;41.844;26.082;2022-12-07T00:21:00;12.57;;;9.05;;
9334;SDS011;4706;41.844;26.082;2022-12-07T00:23:30;13.63;;;9.67;;
9334;SDS011;4706;41.844;26.082;2022-12-07T00:25:56;14.40;;;9.95;;
9334;SDS011;4706;41.844;26.082;2022-12-07T00:28:27;11.93;;;9.77;;
9334;SDS011;4706;41.844;26.082;2022-12-07T00:30:59;15.60;;;11.00;;
9334;SDS011;4706;41.844;26.082;2022-12-07T00:33:26;20.33;;;14.43;;
9334;SDS011;4706;41.844;26.082;2022-12-07T00:35:57;21.00;;;13.77;;
9334;SDS011;4706;41.844;26.082;2022-12-07T00:38:24;23.07;;;13.60;;
9334;SDS011;4706;41.844;26.082;2022-12-07T00:40:56;19.17;;;12.50;;
9334;SDS011;4706;41.844;26.082;2022-12-07T00:43:23;19.13;;;12.23;;
9334;SDS011;4706;41.844;26.082;2022-12-07T00:45:48;18.75;;;12.75;;
9334;SDS011;4706;41.844;26.082;2022-12-07T00:48:14;19.25;;;12.35;;
9334;SDS011;4706;41.844;26.082;2022-12-07T00:50:39;20.10;;;12.55;;
9334;SDS011;4706;41.844;26.082;2022-12-07T00:53:05;23.10;;;13.60;;
9334;SDS011;4706;41.844;26.082;2022-12-07T00:55:33;22.63;;;14.40;;
9334;SDS011;4706;41.844;26.082;2022-12-07T00:58:00;22.50;;;14.02;;
9334;SDS011;4706;41.844;26.082;2022-12-07T01:00:25;19.93;;;12.23;;
9334;SDS011;4706;41.844;26.082;2022-12-07T01:02:51;18.40;;;11.93;;
9334;SDS011;4706;41.844;26.082;2022-12-07T01:05:17;18.67;;;11.90;;
9334;SDS011;4706;41.844;26.082;2022-12-07T01:07:42;14.03;;;11.00;;
9334;SDS011;4706;41.844;26.082;2022-12-07T01:10:08;15.60;;;12.07;;
9334;SDS011;4706;41.844;26.082;2022-12-07T01:12:34;30.05;;;25.70;;
9334;SDS011;4706;41.844;26.082;2022-12-07T01:15:00;36.28;;;25.30;;
9334;SDS011;4706;41.844;26.082;2022-12-07T01:17:25;28.00;;;20.80;;
9334;SDS011;4706;41.844;26.082;2022-12-07T01:19:51;25.50;;;17.20;;
9334;SDS011;4706;41.844;26.082;2022-12-07T01:22:16;28.08;;;17.13;;
9334;SDS011;4706;41.844;26.082;2022-12-07T01:24:42;29.63;;;20.58;;
9334;SDS011;4706;41.844;26.082;2022-12-07T01:27:08;35.50;;;19.55;;
9334;SDS011;4706;41.844;26.082;2022-12-07T01:29:33;29.70;;;17.67;;
9334;SDS011;4706;41.844;26.082;2022-12-07T01:31:58;37.00;;;22.58;;
9334;SDS011;4706;41.844;26.082;2022-12-07T01:34:24;27.65;;;19.58;;
9334;SDS011;4706;41.844;26.082;2022-12-07T01:36:49;28.67;;;18.30;;
9334;SDS011;4706;41.844;26.082;2022-12-07T01:39:15;25.70;;;16.45;;
9334;SDS011;4706;41.844;26.082;2022-12-07T01:41:41;27.92;;;16.27;;
9334;SDS011;4706;41.844;26.082;2022-12-07T01:46:48;23.20;;;15.20;;
9334;SDS011;4706;41.844;26.082;2022-12-07T01:49:21;25.15;;;15.13;;
9334;SDS011;4706;41.844;26.082;2022-12-07T01:51:48;24.25;;;13.88;;
9334;SDS011;4706;41.844;26.082;2022-12-07T01:54:17;22.65;;;13.82;;
9334;SDS011;4706;41.844;26.082;2022-12-07T01:56:52;23.85;;;14.57;;
9334;SDS011;4706;41.844;26.082;2022-12-07T01:59:20;28.03;;;14.90;;
9334;SDS011;4706;41.844;26.082;2022-12-07T02:01:50;23.80;;;14.88;;
9334;SDS011;4706;41.844;26.082;2022-12-07T02:04:15;22.65;;;13.13;;
9334;SDS011;4706;41.844;26.082;2022-12-07T02:06:41;24.20;;;15.38;;
9334;SDS011;4706;41.844;26.082;2022-12-07T02:09:09;23.88;;;14.70;;
9334;SDS011;4706;41.844;26.082;2022-12-07T02:11:35;24.77;;;15.95;;
9334;SDS011;4706;41.844;26.082;2022-12-07T02:14:01;22.65;;;15.23;;
9334;SDS011;4706;41.844;26.082;2022-12-07T02:30:06;29.07;;;17.33;;
9334;SDS011;4706;41.844;26.082;2022-12-07T02:32:48;27.42;;;16.20;;
9334;SDS011;4706;41.844;26.082;2022-12-07T02:35:28;28.17;;;17.08;;
9334;SDS011;4706;41.844;26.082;2022-12-07T02:43:01;19.00;;;13.75;;
9334;SDS011;4706;41.844;26.082;2022-12-07T02:45:40;24.38;;;13.93;;
9334;SDS011;4706;41.844;26.082;2022-12-07T02:48:07;22.23;;;13.20;;
9334;SDS011;4706;41.844;26.082;2022-12-07T02:50:37;18.38;;;12.77;;
9334;SDS011;4706;41.844;26.082;2022-12-07T02:53:03;20.63;;;12.50;;
9334;SDS011;4706;41.844;26.082;2022-12-07T02:55:29;22.67;;;12.60;;
9334;SDS011;4706;41.844;26.082;2022-12-07T03:00:34;17.73;;;11.98;;
9334;SDS011;4706;41.844;26.082;2022-12-07T03:03:15;19.63;;;12.65;;
9334;SDS011;4706;41.844;26.082;2022-12-07T03:08:44;21.23;;;12.80;;
9334;SDS011;4706;41.844;26.082;2022-12-07T03:11:14;24.92;;;13.77;;
9334;SDS011;4706;41.844;26.082;2022-12-07T03:13:50;20.90;;;13.88;;
9334;SDS011;4706;41.844;26.082;2022-12-07T03:19:22;25.48;;;16.05;;
9334;SDS011;4706;41.844;26.082;2022-12-07T03:21:58;39.95;;;21.60;;
9334;SDS011;4706;41.844;26.082;2022-12-07T03:24:30;33.28;;;18.70;;
9334;SDS011;4706;41.844;26.082;2022-12-07T03:27:10;27.80;;;19.42;;
9334;SDS011;4706;41.844;26.082;2022-12-07T03:29:43;26.77;;;16.75;;
9334;SDS011;4706;41.844;26.082;2022-12-07T03:32:15;24.52;;;15.95;;
9334;SDS011;4706;41.844;26.082;2022-12-07T03:34:50;25.35;;;15.65;;
9334;SDS011;4706;41.844;26.082;2022-12-07T03:37:24;24.58;;;15.93;;
9334;SDS011;4706;41.844;26.082;2022-12-07T03:40:03;23.17;;;14.63;;
9334;SDS011;4706;41.844;26.082;2022-12-07T03:42:43;25.27;;;15.73;;
9334;SDS011;4706;41.844;26.082;2022-12-07T03:45:09;24.05;;;14.25;;
9334;SDS011;4706;41.844;26.082;2022-12-07T03:47:54;26.70;;;14.70;;
9334;SDS011;4706;41.844;26.082;2022-12-07T03:53:22;25.10;;;14.35;;
9334;SDS011;4706;41.844;26.082;2022-12-07T03:55:54;22.75;;;13.75;;
9334;SDS011;4706;41.844;26.082;2022-12-07T03:58:21;23.20;;;13.85;;
9334;SDS011;4706;41.844;26.082;2022-12-07T04:00:49;23.95;;;14.93;;
9334;SDS011;4706;41.844;26.082;2022-12-07T04:03:15;22.55;;;14.40;;
9334;SDS011;4706;41.844;26.082;2022-12-07T04:05:40;23.58;;;14.45;;
9334;SDS011;4706;41.844;26.082;2022-12-07T04:08:07;26.25;;;15.60;;
9334;SDS011;4706;41.844;26.082;2022-12-07T04:10:32;21.85;;;15.70;;
9334;SDS011;4706;41.844;26.082;2022-12-07T04:12:58;20.30;;;13.48;;
9334;SDS011;4706;41.844;26.082;2022-12-07T04:15:24;22.50;;;14.93;;
9334;SDS011;4706;41.844;26.082;2022-12-07T04:17:49;21.45;;;13.98;;
9334;SDS011;4706;41.844;26.082;2022-12-07T04:20:15;25.38;;;14.85;;
9334;SDS011;4706;41.844;26.082;2022-12-07T04:22:41;26.38;;;19.98;;
9334;SDS011;4706;41.844;26.082;2022-12-07T04:25:07;30.15;;;19.77;;
9334;SDS011;4706;41.844;26.082;2022-12-07T04:27:32;29.08;;;20.20;;
9334;SDS011;4706;41.844;26.082;2022-12-07T04:29:58;32.92;;;24.67;;
9334;SDS011;4706;41.844;26.082;2022-12-07T04:32:23;39.65;;;30.15;;
9334;SDS011;4706;41.844;26.082;2022-12-07T04:34:49;36.83;;;27.90;;
9334;SDS011;4706;41.844;26.082;2022-12-07T04:37:15;44.40;;;32.28;;
9334;SDS011;4706;41.844;26.082;2022-12-07T04:39:42;43.20;;;33.88;;
9334;SDS011;4706;41.844;26.082;2022-12-07T04:42:09;43.47;;;32.38;;
9334;SDS011;4706;41.844;26.082;2022-12-07T04:44:35;39.90;;;29.55;;
9334;SDS011;4706;41.844;26.082;2022-12-07T04:47:01;32.28;;;24.10;;
9334;SDS011;4706;41.844;26.082;2022-12-07T04:49:26;31.75;;;22.25;;
9334;SDS011;4706;41.844;26.082;2022-12-07T04:51:52;30.73;;;22.83;;
9334;SDS011;4706;41.844;26.082;2022-12-07T04:54:18;29.15;;;22.05;;
9334;SDS011;4706;41.844;26.082;2022-12-07T04:56:43;26.85;;;19.55;;
9334;SDS011;4706;41.844;26.082;2022-12-07T04:59:10;23.02;;;16.95;;
9334;SDS011;4706;41.844;26.082;2022-12-07T05:01:36;20.60;;;15.27;;
9334;SDS011;4706;41.844;26.082;2022-12-07T05:04:01;23.77;;;16.38;;
9334;SDS011;4706;41.844;26.082;2022-12-07T05:06:27;24.30;;;16.58;;
9334;SDS011;4706;41.844;26.082;2022-12-07T05:08:53;24.83;;;16.02;;
9334;SDS011;4706;41.844;26.082;2022-12-07T05:11:18;24.98;;;16.95;;
9334;SDS011;4706;41.844;26.082;2022-12-07T05:14:03;23.77;;;16.85;;
9334;SDS011;4706;41.844;26.082;2022-12-07T05:16:33;21.13;;;15.38;;
9334;SDS011;4706;41.844;26.082;2022-12-07T05:18:59;22.70;;;15.93;;
9334;SDS011;4706;41.844;26.082;2022-12-07T05:21:25;25.17;;;18.52;;
9334;SDS011;4706;41.844;26.082;2022-12-07T05:23:50;29.48;;;20.95;;
9334;SDS011;4706;41.844;26.082;2022-12-07T05:26:16;30.83;;;20.83;;
9334;SDS011;4706;41.844;26.082;2022-12-07T05:28:42;26.90;;;18.55;;
9334;SDS011;4706;41.844;26.082;2022-12-07T05:31:07;31.10;;;22.77;;
9334;SDS011;4706;41.844;26.082;2022-12-07T05:33:33;35.90;;;24.73;;
9334;SDS011;4706;41.844;26.082;2022-12-07T05:35:58;31.80;;;22.77;;
9334;SDS011;4706;41.844;26.082;2022-12-07T05:38:24;30.00;;;21.02;;
9334;SDS011;4706;41.844;26.082;2022-12-07T05:40:51;30.05;;;21.25;;
9334;SDS011;4706;41.844;26.082;2022-12-07T05:43:16;24.88;;;17.67;;
9334;SDS011;4706;41.844;26.082;2022-12-07T05:45:42;25.77;;;17.23;;
9334;SDS011;4706;41.844;26.082;2022-12-07T05:48:07;26.08;;;16.80;;
9334;SDS011;4706;41.844;26.082;2022-12-07T05:50:33;33.67;;;16.45;;
9334;SDS011;4706;41.844;26.082;2022-12-07T05:52:58;27.23;;;17.38;;
9334;SDS011;4706;41.844;26.082;2022-12-07T05:55:24;40.72;;;23.33;;
9334;SDS011;4706;41.844;26.082;2022-12-07T05:57:49;38.40;;;25.40;;
9334;SDS011;4706;41.844;26.082;2022-12-07T06:00:33;39.53;;;24.77;;
9334;SDS011;4706;41.844;26.082;2022-12-07T06:02:59;38.05;;;24.10;;
9334;SDS011;4706;41.844;26.082;2022-12-07T06:05:24;40.43;;;26.13;;
9334;SDS011;4706;41.844;26.082;2022-12-07T06:07:50;39.38;;;25.67;;
9334;SDS011;4706;41.844;26.082;2022-12-07T06:10:18;43.78;;;31.00;;
9334;SDS011;4706;41.844;26.082;2022-12-07T06:12:43;39.00;;;26.92;;
9334;SDS011;4706;41.844;26.082;2022-12-07T06:15:11;31.27;;;21.55;;
9334;SDS011;4706;41.844;26.082;2022-12-07T06:17:38;31.40;;;21.23;;
9334;SDS011;4706;41.844;26.082;2022-12-07T06:20:04;35.10;;;21.25;;
9334;SDS011;4706;41.844;26.082;2022-12-07T06:22:30;27.10;;;18.03;;
9334;SDS011;4706;41.844;26.082;2022-12-07T06:24:56;23.75;;;17.30;;
9334;SDS011;4706;41.844;26.082;2022-12-07T06:27:21;28.33;;;16.83;;
9334;SDS011;4706;41.844;26.082;2022-12-07T06:29:47;24.40;;;16.73;;
9334;SDS011;4706;41.844;26.082;2022-12-07T06:32:12;30.45;;;18.52;;
9334;SDS011;4706;41.844;26.082;2022-12-07T06:34:38;27.05;;;18.42;;
9334;SDS011;4706;41.844;26.082;2022-12-07T06:37:04;27.65;;;17.77;;
9334;SDS011;4706;41.844;26.082;2022-12-07T06:39:29;31.60;;;19.13;;
9334;SDS011;4706;41.844;26.082;2022-12-07T06:41:55;36.75;;;19.95;;
9334;SDS011;4706;41.844;26.082;2022-12-07T06:44:22;34.95;;;22.30;;
9334;SDS011;4706;41.844;26.082;2022-12-07T06:46:48;32.08;;;20.33;;
9334;SDS011;4706;41.844;26.082;2022-12-07T06:49:15;36.95;;;20.10;;
9334;SDS011;4706;41.844;26.082;2022-12-07T06:51:42;36.77;;;20.50;;
9334;SDS011;4706;41.844;26.082;2022-12-07T06:54:11;37.25;;;19.25;;
9334;SDS011;4706;41.844;26.082;2022-12-07T06:56:38;35.80;;;20.13;;
9334;SDS011;4706;41.844;26.082;2022-12-07T06:59:03;39.90;;;20.75;;
9334;SDS011;4706;41.844;26.082;2022-12-07T07:01:31;38.83;;;23.10;;
9334;SDS011;4706;41.844;26.082;2022-12-07T07:03:57;48.70;;;27.70;;
9334;SDS011;4706;41.844;26.082;2022-12-07T07:06:23;50.80;;;28.25;;
9334;SDS011;4706;41.844;26.082;2022-12-07T07:08:49;54.00;;;29.27;;
9334;SDS011;4706;41.844;26.082;2022-12-07T07:11:15;57.28;;;25.65;;
9334;SDS011;4706;41.844;26.082;2022-12-07T07:13:40;49.83;;;24.05;;
9334;SDS011;4706;41.844;26.082;2022-12-07T07:16:06;52.10;;;24.85;;
9334;SDS011;4706;41.844;26.082;2022-12-07T07:18:32;57.38;;;26.75;;
9334;SDS011;4706;41.844;26.082;2022-12-07T07:20:58;55.80;;;24.77;;
9334;SDS011;4706;41.844;26.082;2022-12-07T07:23:23;64.82;;;35.00;;
9334;SDS011;4706;41.844;26.082;2022-12-07T07:25:49;70.55;;;33.40;;
9334;SDS011;4706;41.844;26.082;2022-12-07T07:28:15;120.60;;;74.80;;
9334;SDS011;4706;41.844;26.082;2022-12-07T07:30:41;63.35;;;32.67;;
9334;SDS011;4706;41.844;26.082;2022-12-07T07:33:07;66.50;;;33.00;;
9334;SDS011;4706;41.844;26.082;2022-12-07T07:35:33;62.03;;;30.77;;
9334;SDS011;4706;41.844;26.082;2022-12-07T07:37:59;64.00;;;31.55;;
9334;SDS011;4706;41.844;26.082;2022-12-07T07:40:25;57.67;;;31.80;;
9334;SDS011;4706;41.844;26.082;2022-12-07T07:42:51;69.55;;;35.20;;
9334;SDS011;4706;41.844;26.082;2022-12-07T07:45:22;69.90;;;37.60;;
9334;SDS011;4706;41.844;26.082;2022-12-07T07:47:49;71.55;;;35.13;;
9334;SDS011;4706;41.844;26.082;2022-12-07T07:50:15;66.13;;;33.60;;
9334;SDS011;4706;41.844;26.082;2022-12-07T07:52:42;66.22;;;32.00;;
9334;SDS011;4706;41.844;26.082;2022-12-07T07:55:07;67.72;;;33.78;;
9334;SDS011;4706;41.844;26.082;2022-12-07T07:57:34;70.15;;;34.80;;
9334;SDS011;4706;41.844;26.082;2022-12-07T08:00:00;85.28;;;42.47;;
9334;SDS011;4706;41.844;26.082;2022-12-07T08:02:28;68.40;;;35.25;;
9334;SDS011;4706;41.844;26.082;2022-12-07T08:04:54;79.55;;;36.17;;
9334;SDS011;4706;41.844;26.082;2022-12-07T08:07:20;73.60;;;34.78;;
9334;SDS011;4706;41.844;26.082;2022-12-07T08:09:46;74.75;;;36.17;;
9334;SDS011;4706;41.844;26.082;2022-12-07T08:12:12;77.35;;;37.38;;
9334;SDS011;4706;41.844;26.082;2022-12-07T08:14:37;80.97;;;38.13;;
9334;SDS011;4706;41.844;26.082;2022-12-07T08:17:03;84.70;;;40.30;;
9334;SDS011;4706;41.844;26.082;2022-12-07T08:19:28;79.90;;;39.65;;
9334;SDS011;4706;41.844;26.082;2022-12-07T08:21:54;83.78;;;43.40;;
9334;SDS011;4706;41.844;26.082;2022-12-07T08:24:21;82.18;;;40.17;;
9334;SDS011;4706;41.844;26.082;2022-12-07T08:26:47;75.30;;;36.67;;
9334;SDS011;4706;41.844;26.082;2022-12-07T08:29:13;68.55;;;34.05;;
9334;SDS011;4706;41.844;26.082;2022-12-07T08:31:38;68.65;;;35.88;;
9334;SDS011;4706;41.844;26.082;2022-12-07T08:34:04;73.53;;;38.47;;
9334;SDS011;4706;41.844;26.082;2022-12-07T08:36:30;68.63;;;37.55;;
9334;SDS011;4706;41.844;26.082;2022-12-07T08:38:55;59.45;;;33.13;;
9334;SDS011;4706;41.844;26.082;2022-12-07T08:41:21;65.70;;;40.95;;
9334;SDS011;4706;41.844;26.082;2022-12-07T08:43:46;54.85;;;32.47;;
9334;SDS011;4706;41.844;26.082;2022-12-07T08:48:43;58.60;;;36.17;;
9334;SDS011;4706;41.844;26.082;2022-12-07T08:51:12;50.85;;;30.98;;
9334;SDS011;4706;41.844;26.082;2022-12-07T08:53:38;51.75;;;30.60;;
9334;SDS011;4706;41.844;26.082;2022-12-07T08:56:05;54.17;;;38.45;;
9334;SDS011;4706;41.844;26.082;2022-12-07T08:58:32;53.58;;;31.67;;
9334;SDS011;4706;41.844;26.082;2022-12-07T09:00:59;48.05;;;30.88;;
9334;SDS011;4706;41.844;26.082;2022-12-07T09:03:24;48.13;;;30.42;;
9334;SDS011;4706;41.844;26.082;2022-12-07T09:05:50;41.75;;;26.98;;
9334;SDS011;4706;41.844;26.082;2022-12-07T09:08:17;42.05;;;27.35;;
9334;SDS011;4706;41.844;26.082;2022-12-07T09:10:43;46.25;;;29.65;;
9334;SDS011;4706;41.844;26.082;2022-12-07T09:13:09;45.08;;;26.67;;
9334;SDS011;4706;41.844;26.082;2022-12-07T09:15:34;39.08;;;24.15;;
9334;SDS011;4706;41.844;26.082;2022-12-07T09:18:00;45.25;;;26.10;;
9334;SDS011;4706;41.844;26.082;2022-12-07T09:20:25;45.60;;;27.42;;
9334;SDS011;4706;41.844;26.082;2022-12-07T09:22:51;48.63;;;28.10;;
9334;SDS011;4706;41.844;26.082;2022-12-07T09:25:16;43.38;;;25.55;;
9334;SDS011;4706;41.844;26.082;2022-12-07T09:27:42;45.15;;;25.45;;
9334;SDS011;4706;41.844;26.082;2022-12-07T09:30:07;44.75;;;27.40;;
9334;SDS011;4706;41.844;26.082;2022-12-07T09:32:33;49.40;;;27.50;;
9334;SDS011;4706;41.844;26.082;2022-12-07T09:34:59;41.90;;;26.88;;
9334;SDS011;4706;41.844;26.082;2022-12-07T09:37:24;43.58;;;26.08;;
9334;SDS011;4706;41.844;26.082;2022-12-07T09:39:50;40.90;;;26.45;;
9334;SDS011;4706;41.844;26.082;2022-12-07T09:44:50;39.67;;;24.75;;
9334;SDS011;4706;41.844;26.082;2022-12-07T09:47:15;37.55;;;24.83;;
9334;SDS011;4706;41.844;26.082;2022-12-07T09:49:41;36.58;;;23.83;;
9334;SDS011;4706;41.844;26.082;2022-12-07T09:54:33;38.42;;;23.88;;
9334;SDS011;4706;41.844;26.082;2022-12-07T09:57:02;39.92;;;25.15;;
9334;SDS011;4706;41.844;26.082;2022-12-07T09:59:28;40.75;;;26.52;;
9334;SDS011;4706;41.844;26.082;2022-12-07T10:01:54;43.03;;;27.75;;
9334;SDS011;4706;41.844;26.082;2022-12-07T10:04:24;35.55;;;24.52;;
9334;SDS011;4706;41.844;26.082;2022-12-07T10:06:51;38.58;;;24.77;;
9334;SDS011;4706;41.844;26.082;2022-12-07T10:09:18;36.58;;;25.42;;
9334;SDS011;4706;41.844;26.082;2022-12-07T10:12:05;44.40;;;26.45;;
9334;SDS011;4706;41.844;26.082;2022-12-07T10:14:35;40.40;;;26.10;;
9334;SDS011;4706;41.844;26.082;2022-12-07T10:17:25;39.47;;;24.80;;
9334;SDS011;4706;41.844;26.082;2022-12-07T10:22:36;41.58;;;28.15;;
9334;SDS011;4706;41.844;26.082;2022-12-07T10:25:09;39.95;;;27.35;;
9334;SDS011;4706;41.844;26.082;2022-12-07T10:27:44;38.60;;;26.90;;
9334;SDS011;4706;41.844;26.082;2022-12-07T10:30:23;37.15;;;25.80;;
9334;SDS011;4706;41.844;26.082;2022-12-07T10:32:48;39.88;;;26.40;;
9334;SDS011;4706;41.844;26.082;2022-12-07T10:35:30;42.50;;;29.52;;
9334;SDS011;4706;41.844;26.082;2022-12-07T10:37:57;38.53;;;27.20;;
9334;SDS011;4706;41.844;26.082;2022-12-07T10:48:41;42.05;;;30.15;;
9334;SDS011;4706;41.844;26.082;2022-12-07T11:02:27;46.95;;;35.20;;
9334;SDS011;4706;41.844;26.082;2022-12-07T11:10:28;43.07;;;31.30;;
9334;SDS011;4706;41.844;26.082;2022-12-07T11:25:59;42.00;;;30.13;;
9334;SDS011;4706;41.844;26.082;2022-12-07T11:36:45;40.60;;;28.50;;
9334;SDS011;4706;41.844;26.082;2022-12-07T11:41:50;43.13;;;29.67;;
9334;SDS011;4706;41.844;26.082;2022-12-07T11:46:59;47.80;;;31.87;;
9334;SDS011;4706;41.844;26.082;2022-12-07T11:52:02;47.07;;;32.70;;
9334;SDS011;4706;41.844;26.082;2022-12-07T11:54:35;52.73;;;32.17;;
9334;SDS011;4706;41.844;26.082;2022-12-07T11:57:09;48.53;;;33.40;;
9334;SDS011;4706;41.844;26.082;2022-12-07T11:59:45;61.93;;;37.37;;
9334;SDS011;4706;41.844;26.082;2022-12-07T12:02:16;58.92;;;38.15;;
9334;SDS011;4706;41.844;26.082;2022-12-07T12:07:46;59.43;;;39.50;;
9334;SDS011;4706;41.844;26.082;2022-12-07T12:10:38;63.53;;;40.63;;
9334;SDS011;4706;41.844;26.082;2022-12-07T12:16:22;49.53;;;35.30;;
9334;SDS011;4706;41.844;26.082;2022-12-07T12:19:22;42.83;;;30.37;;
9334;SDS011;4706;41.844;26.082;2022-12-07T12:21:57;39.93;;;27.77;;
9334;SDS011;4706;41.844;26.082;2022-12-07T12:24:37;39.50;;;29.40;;
9334;SDS011;4706;41.844;26.082;2022-12-07T12:27:06;33.50;;;24.25;;
9334;SDS011;4706;41.844;26.082;2022-12-07T12:29:44;30.07;;;23.53;;
9334;SDS011;4706;41.844;26.082;2022-12-07T12:32:43;31.13;;;23.30;;
9334;SDS011;4706;41.844;26.082;2022-12-07T12:40:49;30.80;;;25.00;;
9334;SDS011;4706;41.844;26.082;2022-12-07T12:48:54;25.70;;;20.70;;
9334;SDS011;4706;41.844;26.082;2022-12-07T12:54:04;25.93;;;23.10;;
9334;SDS011;4706;41.844;26.082;2022-12-07T12:59:25;20.53;;;18.33;;
9334;SDS011;4706;41.844;26.082;2022-12-07T13:18:04;19.98;;;17.70;;
9334;SDS011;4706;41.844;26.082;2022-12-07T13:20:50;19.25;;;16.85;;
9334;SDS011;4706;41.844;26.082;2022-12-07T13:26:48;20.20;;;18.02;;
9334;SDS011;4706;41.844;26.082;2022-12-07T13:29:18;24.17;;;17.40;;
9334;SDS011;4706;41.844;26.082;2022-12-07T13:31:54;23.10;;;18.83;;
9334;SDS011;4706;41.844;26.082;2022-12-07T13:39:49;24.57;;;20.43;;
9334;SDS011;4706;41.844;26.082;2022-12-07T13:42:24;23.65;;;19.20;;
9334;SDS011;4706;41.844;26.082;2022-12-07T13:44:54;25.63;;;20.60;;
9334;SDS011;4706;41.844;26.082;2022-12-07T13:49:53;24.42;;;18.08;;
9334;SDS011;4706;41.844;26.082;2022-12-07T13:52:22;21.80;;;18.15;;
9334;SDS011;4706;41.844;26.082;2022-12-07T13:54:59;22.17;;;16.88;;
9334;SDS011;4706;41.844;26.082;2022-12-07T13:57:27;19.42;;;15.82;;
9334;SDS011;4706;41.844;26.082;2022-12-07T13:59:55;21.08;;;17.23;;
9334;SDS011;4706;41.844;26.082;2022-12-07T14:02:28;28.10;;;25.15;;
9334;SDS011;4706;41.844;26.082;2022-12-07T14:05:06;25.52;;;20.23;;
9334;SDS011;4706;41.844;26.082;2022-12-07T14:07:34;25.45;;;19.77;;
9334;SDS011;4706;41.844;26.082;2022-12-07T14:10:01;25.52;;;21.92;;
9334;SDS011;4706;41.844;26.082;2022-12-07T14:12:30;27.63;;;23.55;;
9334;SDS011;4706;41.844;26.082;2022-12-07T14:14:58;28.45;;;23.85;;
9334;SDS011;4706;41.844;26.082;2022-12-07T14:17:26;30.73;;;25.70;;
9334;SDS011;4706;41.844;26.082;2022-12-07T14:19:53;32.30;;;27.40;;
9334;SDS011;4706;41.844;26.082;2022-12-07T14:22:25;28.77;;;24.38;;
9334;SDS011;4706;41.844;26.082;2022-12-07T14:24:57;29.73;;;25.83;;
9334;SDS011;4706;41.844;26.082;2022-12-07T14:27:24;32.55;;;25.00;;
9334;SDS011;4706;41.844;26.082;2022-12-07T14:29:55;33.85;;;29.65;;
9334;SDS011;4706;41.844;26.082;2022-12-07T14:32:25;37.65;;;32.20;;
9334;SDS011;4706;41.844;26.082;2022-12-07T14:37:33;41.83;;;37.20;;
9334;SDS011;4706;41.844;26.082;2022-12-07T14:39:58;38.58;;;34.35;;
9334;SDS011;4706;41.844;26.082;2022-12-07T14:42:26;38.80;;;34.13;;
9334;SDS011;4706;41.844;26.082;2022-12-07T14:44:54;34.33;;;28.98;;
9334;SDS011;4706;41.844;26.082;2022-12-07T14:47:21;36.28;;;30.58;;
9334;SDS011;4706;41.844;26.082;2022-12-07T14:49:46;35.78;;;31.65;;
9334;SDS011;4706;41.844;26.082;2022-12-07T14:52:13;39.13;;;30.33;;
9334;SDS011;4706;41.844;26.082;2022-12-07T14:54:42;35.92;;;28.33;;
9334;SDS011;4706;41.844;26.082;2022-12-07T14:57:09;35.83;;;29.52;;
9334;SDS011;4706;41.844;26.082;2022-12-07T14:59:35;39.85;;;30.55;;
9334;SDS011;4706;41.844;26.082;2022-12-07T15:02:00;42.60;;;32.40;;
9334;SDS011;4706;41.844;26.082;2022-12-07T15:04:26;41.05;;;32.40;;
9334;SDS011;4706;41.844;26.082;2022-12-07T15:06:58;43.13;;;33.78;;
9334;SDS011;4706;41.844;26.082;2022-12-07T15:09:25;41.13;;;32.72;;
9334;SDS011;4706;41.844;26.082;2022-12-07T15:11:50;38.30;;;30.73;;
9334;SDS011;4706;41.844;26.082;2022-12-07T15:14:16;40.00;;;33.67;;
9334;SDS011;4706;41.844;26.082;2022-12-07T15:16:42;38.92;;;33.60;;
9334;SDS011;4706;41.844;26.082;2022-12-07T15:19:12;60.13;;;42.40;;
9334;SDS011;4706;41.844;26.082;2022-12-07T15:21:48;71.32;;;45.58;;
9334;SDS011;4706;41.844;26.082;2022-12-07T15:24:14;59.80;;;42.83;;
9334;SDS011;4706;41.844;26.082;2022-12-07T15:26:39;64.10;;;46.15;;
9334;SDS011;4706;41.844;26.082;2022-12-07T15:29:06;64.07;;;46.88;;
9334;SDS011;4706;41.844;26.082;2022-12-07T15:31:33;74.20;;;50.38;;
9334;SDS011;4706;41.844;26.082;2022-12-07T15:33:59;81.75;;;64.20;;
9334;SDS011;4706;41.844;26.082;2022-12-07T15:36:27;99.43;;;77.25;;
9334;SDS011;4706;41.844;26.082;2022-12-07T15:38:55;150.68;;;112.50;;
9334;SDS011;4706;41.844;26.082;2022-12-07T15:41:21;172.10;;;120.03;;
9334;SDS011;4706;41.844;26.082;2022-12-07T15:43:46;157.20;;;113.93;;
9334;SDS011;4706;41.844;26.082;2022-12-07T15:46:31;146.60;;;111.47;;
9334;SDS011;4706;41.844;26.082;2022-12-07T15:48:58;163.68;;;145.38;;
9334;SDS011;4706;41.844;26.082;2022-12-07T15:51:24;163.25;;;135.50;;
9334;SDS011;4706;41.844;26.082;2022-12-07T15:53:49;120.80;;;95.00;;
9334;SDS011;4706;41.844;26.082;2022-12-07T15:56:15;88.78;;;71.78;;
9334;SDS011;4706;41.844;26.082;2022-12-07T15:58:40;81.97;;;65.18;;
9334;SDS011;4706;41.844;26.082;2022-12-07T16:01:16;93.80;;;76.10;;
9334;SDS011;4706;41.844;26.082;2022-12-07T16:03:43;68.13;;;54.58;;
9334;SDS011;4706;41.844;26.082;2022-12-07T16:06:09;60.95;;;48.03;;
9334;SDS011;4706;41.844;26.082;2022-12-07T16:08:35;40.72;;;35.00;;
9334;SDS011;4706;41.844;26.082;2022-12-07T16:11:05;35.00;;;26.98;;
9334;SDS011;4706;41.844;26.082;2022-12-07T16:13:33;46.88;;;37.58;;
9334;SDS011;4706;41.844;26.082;2022-12-07T16:16:03;43.88;;;34.50;;
9334;SDS011;4706;41.844;26.082;2022-12-07T16:18:33;33.50;;;29.08;;
9334;SDS011;4706;41.844;26.082;2022-12-07T16:20:59;41.83;;;31.30;;
9334;SDS011;4706;41.844;26.082;2022-12-07T16:23:25;37.95;;;30.10;;
9334;SDS011;4706;41.844;26.082;2022-12-07T16:25:51;37.85;;;30.83;;
9334;SDS011;4706;41.844;26.082;2022-12-07T16:28:16;40.60;;;30.85;;
9334;SDS011;4706;41.844;26.082;2022-12-07T16:30:42;39.22;;;29.25;;
9334;SDS011;4706;41.844;26.082;2022-12-07T16:33:07;62.22;;;46.53;;
9334;SDS011;4706;41.844;26.082;2022-12-07T16:35:33;59.95;;;45.20;;
9334;SDS011;4706;41.844;26.082;2022-12-07T16:37:58;43.30;;;34.97;;
9334;SDS011;4706;41.844;26.082;2022-12-07T16:40:24;46.22;;;35.05;;
9334;SDS011;4706;41.844;26.082;2022-12-07T16:42:49;42.95;;;35.08;;
9334;SDS011;4706;41.844;26.082;2022-12-07T16:45:15;42.05;;;32.72;;
9334;SDS011;4706;41.844;26.082;2022-12-07T16:47:41;40.92;;;29.70;;
9334;SDS011;4706;41.844;26.082;2022-12-07T16:50:07;40.13;;;33.05;;
9334;SDS011;4706;41.844;26.082;2022-12-07T16:52:33;42.35;;;32.67;;
9334;SDS011;4706;41.844;26.082;2022-12-07T16:54:58;44.45;;;35.15;;
9334;SDS011;4706;41.844;26.082;2022-12-07T16:57:24;47.55;;;35.83;;
9334;SDS011;4706;41.844;26.082;2022-12-07T16:59:53;57.17;;;43.70;;
9334;SDS011;4706;41.844;26.082;2022-12-07T17:02:18;78.20;;;54.90;;
9334;SDS011;4706;41.844;26.082;2022-12-07T17:04:44;68.13;;;50.40;;
9334;SDS011;4706;41.844;26.082;2022-12-07T17:07:10;66.90;;;46.08;;
9334;SDS011;4706;41.844;26.082;2022-12-07T17:09:36;80.80;;;52.88;;